Dublin, IN

9:59 AM EST on February 12, 2016 (GMT -0500)
Fairholme Farms | | Change Station
CLOSE
Current Station
Personal Weather Station
Location: Lewisville, IN
Elevation: 1050 ft
Nearby Weather Stations

Elev 1050 ft 39.79 °N, 85.35 °W | Updated 4 minutes ago

Overcast
Overcast
21.8 °F
Feels Like 14 °F
N
6.0
Wind Variable Wind from West
Gusts 7.0 mph

Today
High -- | Low -- °F
--% Chance of Precip.
Yesterday
High -- | Low -- °F
Precip. -- in
Pressure 30.16 in
Visibility 10.0 miles
Clouds Scattered Clouds 3000 ft
Overcast 4500 ft
Windchill 14 °F
Dew Point 14 °F
Humidity 72%
Rainfall 0.00 in
Snow Depth Not available.
7:37 AM 6:12 PM
Waxing Crescent, 21% visible
METAR KAID 121452Z 23010KT 10SM SCT030 OVC045 M06/M11 A3016
Pressure 30.16 in
Visibility 10.0 miles
Clouds Scattered Clouds 3000 ft
Overcast 4500 ft
Windchill 14 °F
Dew Point 14 °F
Humidity 72%
Rainfall 0.00 in
Snow Depth Not available.
7:37 AM 6:12 PM
Waxing Crescent, 21% visible
METAR KAID 121452Z 23010KT 10SM SCT030 OVC045 M06/M11 A3016

10-Day Weather Forecast

Almanac

Astronomy

Feb. 12, 2016 Rise Set
Actual Time
Civil Twilight
Nautical Twilight
Astronomical Twilight
Moon
Length of Visible Light
Length of Day
Tomorrow will be .
, % of the Moon is Illuminated

Today's Extremes

State Highs State Lows

Community

WunderPhotos

Upload Photos

1,892,318 photos uploaded!

WunderBlog® & News

Nearby

Air Quality

  Air Quality AQ Index Pollutant
Not available.

Snow Depth

Station Depth Elevation

Earthquake Activity

City Distance Mag. Time & Date
Minimum magnitude displayed is 2.5.

Coastal Water Temperatures

Place Temperature

Stations

Nearby Weather Stations

Station Location Temp. Windchill Dew Point Humidity Wind Precip. Elev Updated Type
                   

Watches & Warnings

There are currently no watches in effect.